首页
METAR-TAF:

METAR-TAF

机场 :

基加利国际机场

吉佳利, 卢旺达

纬度: 01-58S, 经度: 030-07E, 海拔: 1491米

当前天气观测

该预报发布于43分钟前的15:00 UTC
风速3节,风向
温度 23°C
湿度 73%
气压 1018 hPa
能见度10公里或以上
少量云层高于2300英尺, 积雨云.
散云层高于2500英尺

METAR: HRYR 091500Z 08003KT 9999 FEW023CB SCT025 23/18 Q1018 NOSIG

时间: 17:43 (15:43 UTC)

预报

该预报发布于4小时和43分钟前的11:00 UTC
预报有效从09日的 12点(UTC)到 10日的 18点(UTC)
风速5节,风向南转南东
能见度10公里或以上
散云层高于2500英尺
散云层高于10000英尺
短暂存在
从 09日的 12点(UTC)到 09日的 16点(UTC)
风速10节,风向南转西南
少量云层高于2300英尺, 积雨云.
多云层高于2500英尺
雷暴, 小雨
成为
从 09日的 17点(UTC)到 09日的 21点(UTC)
风速4节,风向
散云层高于2600英尺
成为
从 10日的 02点(UTC)到 10日的 05点(UTC)
从 10日的 0900点(UTC)
风速3节,风向
多云层高于2300英尺
多云层高于10000英尺
小雨
成为
从 10日的 10点(UTC)到 10日的 14点(UTC)
风速10节,风向东转东南,有时为20节阵风
少量云层高于2000英尺, 积雨云.
多云层高于2300英尺
雷暴, 雨

TAF: HRYR 091100Z 0912/1018 16005KT 9999 SCT025 SCT100 TEMPO 0912/0916 21010KT -TSRA FEW023CB BKN025 BECMG 0917/0921 09004KT NSW SCT026 BECMG 1002/1005 33003 FM100900 17003KT -RA BKN023 BKN100 BECMG 1010/1014 11010G20KT TSRA FEW020CB BKN023

超过4000个机场的气象观测和天气预报(METAR&TAF报告)。

可查询的气象台以黄色和红色小点在地图上表示。

将鼠标移到小点上方,可查看气象台名称。

然后点击查看天气观测和预报。

如需切换地图:点击带黑十字的绿色按钮放大地图;点击带横线的绿色按钮缩小地图;或者点击绿色箭头查看邻近地区的地图。


METAR-TAF: